Time;durP1;ratioP1;P1;durP2;ratioP2;P2;SDS_P1;SDS_P2;PMS_P1;PMS_P2;Temp;Humidity;BMP_temperature;BMP_pressure;BME280_temperature;BME280_humidity;BME280_pressure;Samples;Min_cycle;Max_cycle;Signal;HPM_P1;HPM_P2
2021/11/03 00:01:36;;;;;;;12.13;10.07;;;;;;;5.36;82.74;100267.06;5010524;28;20191;-71
2021/11/03 00:04:03;;;;;;;11.80;9.70;;;;;;;5.35;82.25;100261.13;5012658;28;20191;-71
2021/11/03 00:06:28;;;;;;;12.27;10.07;;;;;;;5.26;82.62;100262.53;5013025;28;20230;-71
2021/11/03 00:08:56;;;;;;;12.20;9.93;;;;;;;5.10;83.34;100268.81;5011396;28;20215;-71
2021/11/03 00:11:22;;;;;;;12.50;10.00;;;;;;;5.09;83.63;100264.56;5012003;28;20195;-71
2021/11/03 00:13:47;;;;;;;13.10;10.80;;;;;;;5.13;82.87;100261.31;5011883;28;20191;-71
2021/11/03 00:16:13;;;;;;;14.57;10.37;;;;;;;5.20;82.67;100258.13;5012794;28;20203;-71
2021/11/03 00:18:38;;;;;;;15.30;11.50;;;;;;;5.13;83.02;100263.84;5012427;28;20253;-71
2021/11/03 00:21:06;;;;;;;12.60;11.13;;;;;;;5.19;82.63;100261.47;5011631;28;20195;-71
2021/11/03 00:23:32;;;;;;;18.23;13.20;;;;;;;5.24;83.35;100262.47;5012482;28;20665;-71
2021/11/03 00:25:58;;;;;;;21.77;12.80;;;;;;;5.21;83.35;100266.59;5011860;28;20226;-71
2021/11/03 00:28:24;;;;;;;20.73;13.33;;;;;;;5.18;83.58;100267.38;5012259;28;20314;-71
2021/11/03 00:30:53;;;;;;;20.50;13.07;;;;;;;5.22;83.94;100265.78;5013217;28;20249;-71
2021/11/03 00:33:21;;;;;;;31.53;15.30;;;;;;;5.23;83.80;100268.38;5012958;28;20233;-71
2021/11/03 00:35:47;;;;;;;40.57;18.50;;;;;;;5.21;85.73;100270.00;5011083;28;20211;-71
2021/11/03 00:38:12;;;;;;;44.40;18.77;;;;;;;5.23;86.07;100268.38;5010799;28;20203;-71
2021/11/03 00:40:38;;;;;;;29.53;17.57;;;;;;;5.26;86.06;100265.94;5011569;28;20187;-71
2021/11/03 00:43:03;;;;;;;39.37;17.70;;;;;;;5.33;86.46;100267.84;5011886;28;20185;-71
2021/11/03 00:45:30;;;;;;;27.67;16.60;;;;;;;5.31;86.99;100266.94;4994381;28;20207;-71
2021/11/03 00:47:56;;;;;;;25.97;16.73;;;;;;;5.38;87.32;100263.75;5011269;28;20278;-71
2021/11/03 00:50:22;;;;;;;24.67;16.20;;;;;;;5.44;87.32;100265.63;5009397;28;20321;-71
2021/11/03 00:52:49;;;;;;;27.13;14.93;;;;;;;5.47;87.60;100258.09;5011622;28;20179;-71
2021/11/03 00:55:15;;;;;;;31.73;16.47;;;;;;;5.48;87.90;100263.22;5024509;28;20269;-71
2021/11/03 00:57:40;;;;;;;28.70;15.40;;;;;;;5.54;88.47;100268.50;5010718;28;20183;-71
2021/11/03 01:00:07;;;;;;;27.13;15.33;;;;;;;5.55;88.33;100256.66;5027013;28;20176;-71
2021/11/03 01:02:33;;;;;;;19.20;13.20;;;;;;;5.56;87.75;100259.22;5010010;28;20187;-71
2021/11/03 01:04:59;;;;;;;20.30;12.73;;;;;;;5.58;88.40;100257.59;5010867;28;20261;-71
2021/11/03 01:07:24;;;;;;;21.77;13.50;;;;;;;5.59;88.15;100261.00;5010305;28;20188;-72
2021/11/03 01:09:49;;;;;;;20.03;13.00;;;;;;;5.65;88.70;100256.09;5011614;28;20712;-72
2021/11/03 01:12:15;;;;;;;19.00;13.13;;;;;;;5.71;87.91;100256.28;5012042;28;20215;-71
2021/11/03 01:14:41;;;;;;;16.10;12.07;;;;;;;5.67;88.69;100252.78;5010231;28;20242;-71
2021/11/03 01:17:07;;;;;;;15.93;11.30;;;;;;;5.69;88.32;100256.25;5004473;28;20199;-72
2021/11/03 01:19:33;;;;;;;14.43;11.20;;;;;;;5.65;87.77;100259.50;5010699;28;20601;-72
2021/11/03 01:21:59;;;;;;;14.33;11.30;;;;;;;5.66;87.93;100255.31;5010736;28;20183;-71
2021/11/03 01:24:24;;;;;;;11.83;9.77;;;;;;;5.61;88.00;100251.78;5010132;28;20191;-71
2021/11/03 01:26:50;;;;;;;14.47;10.90;;;;;;;5.57;87.54;100250.78;5010459;28;20203;-71
2021/11/03 01:29:16;;;;;;;12.30;9.43;;;;;;;5.60;87.46;100245.81;5009925;28;20215;-71
2021/11/03 01:31:41;;;;;;;10.97;9.23;;;;;;;5.60;87.29;100250.03;5005134;28;20194;-71
2021/11/03 01:34:07;;;;;;;11.00;9.17;;;;;;;5.59;87.17;100251.72;5009976;28;20195;-71
2021/11/03 01:36:34;;;;;;;12.70;9.67;;;;;;;5.61;86.68;100237.38;5009991;28;20199;-71
2021/11/03 01:39:01;;;;;;;11.27;9.87;;;;;;;5.61;87.53;100245.00;5009299;28;20183;-71
2021/11/03 01:41:26;;;;;;;13.00;9.73;;;;;;;5.65;86.68;100248.47;4992273;28;20315;-71
2021/11/03 01:44:03;;;;;;;12.03;9.27;;;;;;;5.64;86.80;100245.09;5008356;28;20739;-71
2021/11/03 01:46:32;;;;;;;10.90;9.63;;;;;;;5.64;86.26;100245.09;5025050;28;20218;-72
2021/11/03 01:49:19;;;;;;;11.57;10.10;;;;;;;5.69;86.10;100240.13;5009601;28;20346;-71
2021/11/03 01:51:59;;;;;;;10.67;9.57;;;;;;;5.73;86.71;100244.50;5026676;28;20196;-72
2021/11/03 01:54:42;;;;;;;13.60;10.77;;;;;;;5.80;87.07;100238.78;5009612;28;20191;-71
2021/11/03 01:57:14;;;;;;;13.80;11.17;;;;;;;5.87;87.42;100235.59;5009923;28;20198;-71
2021/11/03 01:59:44;;;;;;;14.80;10.87;;;;;;;5.86;88.05;100242.38;5007132;28;20180;-71
2021/11/03 02:02:14;;;;;;;14.93;11.20;;;;;;;5.88;87.68;100242.41;5009232;28;20202;-72
2021/11/03 02:04:39;;;;;;;13.97;10.73;;;;;;;5.93;88.10;100240.84;5003424;28;20350;-71
2021/11/03 02:07:10;;;;;;;15.17;12.23;;;;;;;6.00;88.14;100237.69;4993556;28;20193;-71
2021/11/03 02:09:36;;;;;;;14.47;11.90;;;;;;;6.02;88.99;100236.91;5002450;28;20290;-71
2021/11/03 02:12:02;;;;;;;13.20;11.73;;;;;;;6.05;88.28;100231.91;5006622;28;20679;-72
2021/11/03 02:14:28;;;;;;;14.93;12.17;;;;;;;6.09;88.89;100238.81;4991461;28;20204;-71
2021/11/03 02:16:54;;;;;;;18.87;13.47;;;;;;;6.12;89.36;100238.88;5010835;28;20282;-71
2021/11/03 02:19:25;;;;;;;16.87;13.13;;;;;;;6.13;89.35;100240.56;5009196;28;20260;-72
2021/11/03 02:22:10;;;;;;;17.70;13.43;;;;;;;6.14;89.55;100249.06;5009664;28;20849;-71
2021/11/03 02:24:46;;;;;;;16.47;13.43;;;;;;;6.17;89.73;100246.63;5024911;28;20292;-71
2021/11/03 02:27:13;;;;;;;17.17;12.73;;;;;;;6.16;89.99;100243.22;4987406;28;20191;-71
2021/11/03 02:29:39;;;;;;;16.63;13.57;;;;;;;6.18;89.55;100246.66;5002552;28;20297;-71
2021/11/03 02:32:14;;;;;;;14.97;12.63;;;;;;;6.21;89.91;100240.81;5010724;28;20665;-71
2021/11/03 02:34:39;;;;;;;18.43;13.90;;;;;;;6.22;89.81;100240.81;5008391;28;20249;-71
2021/11/03 02:37:27;;;;;;;16.23;13.27;;;;;;;6.28;89.71;100242.69;5000074;28;20183;-71
2021/11/03 02:40:01;;;;;;;17.03;12.13;;;;;;;6.32;88.77;100232.66;5004230;28;20199;-71
2021/11/03 02:42:30;;;;;;;18.53;13.33;;;;;;;6.34;89.18;100233.53;5009257;28;20194;-71
2021/11/03 02:44:59;;;;;;;20.13;13.70;;;;;;;6.39;89.63;100234.50;5009967;28;20207;-71
2021/11/03 02:47:24;;;;;;;17.53;14.33;;;;;;;6.43;89.25;100232.91;5008971;28;20192;-71
2021/11/03 02:49:50;;;;;;;18.40;13.53;;;;;;;6.47;89.90;100235.56;4991876;28;20207;-71
2021/11/03 02:52:21;;;;;;;19.43;14.40;;;;;;;6.50;89.77;100228.00;5007542;28;20193;-71
2021/11/03 02:54:46;;;;;;;16.60;13.10;;;;;;;6.51;90.21;100233.97;5007549;28;20203;-72
2021/11/03 02:57:12;;;;;;;16.23;12.67;;;;;;;6.54;89.68;100234.06;5007811;28;20241;-71
2021/11/03 02:59:37;;;;;;;17.33;14.03;;;;;;;6.55;90.18;100244.28;5025187;28;20222;-71
2021/11/03 03:02:05;;;;;;;18.23;13.93;;;;;;;6.56;90.55;100240.03;5008165;28;20191;-71
2021/11/03 03:04:34;;;;;;;17.87;14.77;;;;;;;6.57;90.46;100245.16;5008454;28;20612;-71
2021/11/03 03:07:02;;;;;;;18.53;14.10;;;;;;;6.66;90.24;100244.50;5008098;28;20569;-71
2021/11/03 03:09:28;;;;;;;19.73;14.87;;;;;;;6.65;90.88;100243.69;5015774;28;20242;-71
2021/11/03 03:11:58;;;;;;;19.87;14.80;;;;;;;6.67;90.53;100239.47;5023194;28;20214;-72
2021/11/03 03:14:28;;;;;;;18.47;14.43;;;;;;;6.70;89.84;100238.69;5024464;28;20183;-71
2021/11/03 03:16:54;;;;;;;20.57;14.83;;;;;;;6.74;90.35;100243.03;5008172;28;20179;-71
2021/11/03 03:19:20;;;;;;;19.10;14.07;;;;;;;6.74;90.56;100248.13;5008396;28;20275;-71
2021/11/03 03:21:46;;;;;;;20.80;14.20;;;;;;;6.73;90.08;100244.69;5007305;28;20321;-71
2021/11/03 03:24:13;;;;;;;20.93;14.23;;;;;;;6.75;89.96;100237.13;5024189;28;20194;-71
2021/11/03 03:26:39;;;;;;;18.03;14.30;;;;;;;6.75;90.22;100237.13;5023066;28;20257;-71
2021/11/03 03:29:05;;;;;;;20.47;14.70;;;;;;;6.76;89.89;100238.81;5006358;28;20700;-71
2021/11/03 03:31:30;;;;;;;23.47;13.87;;;;;;;6.76;89.48;100247.34;5005640;28;20719;-70
2021/11/03 03:33:58;;;;;;;17.80;12.77;;;;;;;6.78;89.92;100248.22;5008872;28;20184;-71
2021/11/03 03:36:24;;;;;;;17.93;12.67;;;;;;;6.78;89.42;100250.75;5023455;28;20731;-71
2021/11/03 03:38:52;;;;;;;16.77;12.63;;;;;;;6.76;88.83;100242.25;5008401;28;20183;-71
2021/11/03 03:41:19;;;;;;;18.67;13.17;;;;;;;6.74;89.43;100248.13;5008363;28;20191;-71
2021/11/03 03:43:45;;;;;;;18.27;13.47;;;;;;;6.74;89.49;100243.91;5006781;28;20180;-71
2021/11/03 03:46:14;;;;;;;16.53;13.40;;;;;;;6.71;89.57;100254.00;5023677;28;20261;-71
2021/11/03 03:48:40;;;;;;;17.90;13.13;;;;;;;6.69;89.14;100250.56;5001312;28;20218;-71
2021/11/03 03:51:07;;;;;;;18.13;12.43;;;;;;;6.61;89.54;100241.88;5008154;28;20222;-71
2021/11/03 03:53:33;;;;;;;18.70;12.57;;;;;;;6.60;88.81;100250.34;4991398;28;20260;-71
2021/11/03 03:55:58;;;;;;;15.17;11.90;;;;;;;6.57;88.83;100247.69;5007791;28;20743;-71
2021/11/03 03:58:25;;;;;;;15.23;12.40;;;;;;;6.57;88.75;100250.25;5004801;28;20197;-70
2021/11/03 04:00:51;;;;;;;15.77;12.60;;;;;;;6.53;88.13;100247.56;5009140;28;20271;-71
2021/11/03 04:03:18;;;;;;;18.27;13.17;;;;;;;6.51;88.70;100254.31;5000125;28;20188;-71
2021/11/03 04:05:44;;;;;;;17.03;14.10;;;;;;;6.48;88.09;100261.84;5007440;28;20203;-70
2021/11/03 04:08:14;;;;;;;17.97;12.73;;;;;;;6.45;89.15;100265.19;5009135;28;20520;-70
2021/11/03 04:10:41;;;;;;;16.30;12.63;;;;;;;6.44;88.16;100258.38;5023660;28;20187;-70
2021/11/03 04:13:10;;;;;;;15.10;12.33;;;;;;;6.39;88.03;100269.22;5007902;28;20282;-71
2021/11/03 04:15:36;;;;;;;17.47;11.87;;;;;;;6.31;88.42;100270.72;5009013;28;20204;-71
2021/11/03 04:18:02;;;;;;;15.47;12.67;;;;;;;6.30;87.58;100279.16;5024690;28;20234;-71
2021/11/03 04:20:28;;;;;;;16.47;11.30;;;;;;;6.26;87.94;100273.13;5017135;28;20187;-71
2021/11/03 04:22:53;;;;;;;14.10;11.00;;;;;;;6.27;87.77;100277.41;5024620;28;20657;-71
2021/11/03 04:25:19;;;;;;;14.00;10.90;;;;;;;6.19;87.00;100283.09;5006052;28;20669;-71
2021/11/03 04:27:45;;;;;;;16.60;11.80;;;;;;;6.18;87.05;100277.16;5007429;28;20184;-71
2021/11/03 04:30:14;;;;;;;15.03;12.00;;;;;;;6.21;87.54;100274.69;5009588;28;20265;-71
2021/11/03 04:32:39;;;;;;;15.10;11.60;;;;;;;6.15;87.27;100282.16;5003412;28;20187;-71
2021/11/03 04:35:06;;;;;;;14.90;11.27;;;;;;;6.16;87.18;100281.34;5010710;28;20645;-72
2021/11/03 04:37:32;;;;;;;13.73;10.60;;;;;;;6.15;87.52;100283.84;5007860;28;20188;-71
2021/11/03 04:39:57;;;;;;;15.87;11.17;;;;;;;6.19;87.72;100295.81;5009613;28;20209;-71
2021/11/03 04:42:23;;;;;;;14.93;12.33;;;;;;;6.20;88.61;100297.53;5011408;28;20222;-71
2021/11/03 04:44:48;;;;;;;16.23;11.27;;;;;;;6.20;87.73;100300.94;5012093;28;20619;-71
2021/11/03 04:47:14;;;;;;;16.37;12.37;;;;;;;6.23;88.32;100297.63;5009880;28;20656;-71
2021/11/03 04:49:41;;;;;;;17.40;12.57;;;;;;;6.25;88.26;100290.88;5003894;28;20271;-71
2021/11/03 04:52:06;;;;;;;14.60;11.40;;;;;;;6.29;87.58;100300.31;5012473;28;20556;-72
2021/11/03 04:54:32;;;;;;;17.47;12.30;;;;;;;6.31;87.86;100299.53;5011450;28;20187;-71
2021/11/03 04:56:57;;;;;;;16.57;12.07;;;;;;;6.32;87.75;100303.84;5008447;28;20925;-71
2021/11/03 04:59:23;;;;;;;17.77;12.37;;;;;;;6.31;88.28;100294.47;5003712;28;20242;-71
2021/11/03 05:01:50;;;;;;;15.67;12.00;;;;;;;6.33;88.29;100297.91;5007635;28;20191;-71
2021/11/03 05:04:16;;;;;;;15.70;12.63;;;;;;;6.35;88.61;100291.19;5010982;28;20191;-71
2021/11/03 05:06:44;;;;;;;17.57;12.73;;;;;;;6.37;88.25;100301.41;5010686;28;20189;-71
2021/11/03 05:09:13;;;;;;;14.27;11.83;;;;;;;6.39;88.57;100297.19;5010248;28;20239;-71
2021/11/03 05:11:38;;;;;;;15.37;12.00;;;;;;;6.41;88.07;100300.66;5010801;28;20610;-71
2021/11/03 05:14:04;;;;;;;16.30;12.30;;;;;;;6.41;88.11;100298.13;5009037;28;20187;-70
2021/11/03 05:16:32;;;;;;;15.33;11.83;;;;;;;6.40;87.75;100302.34;5010379;28;20195;-71
2021/11/03 05:18:59;;;;;;;14.63;12.10;;;;;;;6.39;87.90;100298.06;5022446;28;20195;-71
2021/11/03 05:21:26;;;;;;;16.47;12.40;;;;;;;6.42;88.25;100292.22;5009180;28;20241;-72
2021/11/03 05:23:56;;;;;;;19.03;12.90;;;;;;;6.42;88.26;100298.16;5021298;28;20187;-72
2021/11/03 05:26:23;;;;;;;17.80;13.63;;;;;;;6.46;88.57;100294.88;5010002;28;20223;-72
2021/11/03 05:28:52;;;;;;;20.07;14.10;;;;;;;6.48;88.00;100300.88;5011834;28;20219;-71
2021/11/03 05:31:17;;;;;;;17.20;12.80;;;;;;;6.49;88.93;100292.41;5011932;28;20188;-71
2021/11/03 05:33:43;;;;;;;19.33;13.03;;;;;;;6.50;88.79;100295.81;5010694;28;20195;-72
2021/11/03 05:36:16;;;;;;;17.23;12.67;;;;;;;6.50;88.50;100299.22;5010402;28;20214;-71
2021/11/03 05:38:41;;;;;;;18.37;12.60;;;;;;;6.51;89.48;100292.47;5010616;28;20226;-70
2021/11/03 05:41:07;;;;;;;18.30;13.47;;;;;;;6.49;88.85;100292.41;5011707;28;20218;-71
2021/11/03 05:43:32;;;;;;;17.70;14.60;;;;;;;6.50;88.59;100294.13;5011765;28;20496;-71
2021/11/03 05:45:57;;;;;;;18.13;13.43;;;;;;;6.52;89.14;100295.03;5011574;28;20230;-71
2021/11/03 05:48:25;;;;;;;17.67;14.20;;;;;;;6.54;88.72;100295.09;5011403;28;20193;-71
2021/11/03 05:50:51;;;;;;;21.73;13.60;;;;;;;6.51;89.65;100295.88;5010716;28;20198;-71
2021/11/03 05:53:17;;;;;;;17.03;13.63;;;;;;;6.52;89.01;100291.63;5011657;28;20183;-71
2021/11/03 05:55:42;;;;;;;20.90;12.90;;;;;;;6.50;88.77;100301.75;5011145;28;20285;-71
2021/11/03 05:58:08;;;;;;;17.40;12.80;;;;;;;6.49;88.69;100300.03;5011535;28;20196;-71
2021/11/03 06:00:36;;;;;;;18.63;13.37;;;;;;;6.45;89.55;100300.78;5013524;28;20266;-71
2021/11/03 06:03:01;;;;;;;17.33;13.67;;;;;;;6.43;89.26;100301.56;5031048;28;20850;-70
2021/11/03 06:05:27;;;;;;;19.13;14.17;;;;;;;6.37;89.20;100303.94;5030952;28;20318;-71
2021/11/03 06:07:56;;;;;;;16.03;13.67;;;;;;;6.36;89.28;100305.59;5031195;28;20189;-71
2021/11/03 06:10:25;;;;;;;19.00;13.77;;;;;;;6.29;88.72;100307.94;5029809;28;20218;-71
2021/11/03 06:12:52;;;;;;;16.73;12.73;;;;;;;6.25;88.59;100316.31;5020317;28;20198;-71
2021/11/03 06:15:18;;;;;;;15.50;12.07;;;;;;;6.19;88.28;100318.69;5011106;28;20207;-71
2021/11/03 06:17:44;;;;;;;17.77;13.30;;;;;;;6.13;87.88;100315.97;5011009;28;20226;-71
2021/11/03 06:20:09;;;;;;;16.47;12.20;;;;;;;6.10;88.04;100328.59;5020414;28;20191;-71
2021/11/03 06:22:35;;;;;;;14.30;11.73;;;;;;;6.00;87.69;100327.47;5010767;28;20195;-71
2021/11/03 06:25:03;;;;;;;16.00;12.40;;;;;;;5.94;87.45;100329.81;5010916;28;20215;-71
2021/11/03 06:27:29;;;;;;;17.47;12.00;;;;;;;5.85;86.83;100334.63;5010870;28;20183;-71
2021/11/03 06:29:54;;;;;;;17.93;12.47;;;;;;;5.86;86.53;100340.59;5010660;28;20265;-71
2021/11/03 06:32:19;;;;;;;16.50;13.27;;;;;;;5.88;87.92;100344.91;5011084;28;20187;-71
2021/11/03 06:34:45;;;;;;;16.47;12.83;;;;;;;5.90;87.20;100352.56;5010774;28;20217;-71
2021/11/03 06:37:10;;;;;;;17.37;12.47;;;;;;;5.83;86.91;100361.69;5010738;28;20183;-71
2021/11/03 06:39:36;;;;;;;17.60;12.77;;;;;;;5.85;86.97;100354.09;5010797;28;20242;-71
2021/11/03 06:42:01;;;;;;;17.27;12.50;;;;;;;5.83;87.30;100359.13;5010980;28;20590;-71
2021/11/03 06:44:26;;;;;;;16.83;12.80;;;;;;;5.76;86.92;100367.34;5010745;28;20689;-71
2021/11/03 06:46:52;;;;;;;15.80;11.67;;;;;;;5.71;86.32;100368.03;5009124;28;20253;-72
2021/11/03 06:49:18;;;;;;;17.83;12.10;;;;;;;5.63;86.89;100361.84;5010506;28;20215;-71
2021/11/03 06:51:43;;;;;;;15.70;12.20;;;;;;;5.62;86.27;100368.59;5009920;28;20270;-71
2021/11/03 06:54:08;;;;;;;15.13;12.10;;;;;;;5.58;86.67;100365.94;5010880;28;20195;-71
2021/11/03 06:56:34;;;;;;;16.77;12.20;;;;;;;5.51;85.83;100371.63;5020975;28;20218;-71
2021/11/03 06:59:00;;;;;;;15.30;10.97;;;;;;;5.49;85.89;100369.06;5030132;28;20286;-71
2021/11/03 07:01:25;;;;;;;14.40;10.77;;;;;;;5.50;85.91;100372.44;5030045;28;20182;-71
2021/11/03 07:03:52;;;;;;;14.90;11.57;;;;;;;5.44;85.69;100374.78;5019661;28;20206;-70
2021/11/03 07:06:19;;;;;;;15.37;11.47;;;;;;;5.44;86.57;100370.56;5008767;28;20629;-71
2021/11/03 07:08:47;;;;;;;18.57;12.27;;;;;;;5.54;87.11;100367.53;5009376;28;20214;-71
2021/11/03 07:11:13;;;;;;;18.43;13.73;;;;;;;5.68;87.49;100367.94;5010294;28;20237;-70
2021/11/03 07:13:39;;;;;;;19.63;14.13;;;;;;;5.71;87.65;100373.97;5010160;28;20226;-71
2021/11/03 07:16:04;;;;;;;15.73;12.27;;;;;;;5.67;88.05;100389.91;5009866;28;20261;-71
2021/11/03 07:18:30;;;;;;;18.30;14.63;;;;;;;5.67;88.52;100389.91;5010077;28;20189;-71
2021/11/03 07:20:55;;;;;;;22.90;15.10;;;;;;;5.70;89.24;100399.31;5009689;28;20186;-71
2021/11/03 07:23:22;;;;;;;20.33;14.60;;;;;;;5.75;88.68;100398.63;5010021;28;20551;-70
2021/11/03 07:25:48;;;;;;;21.33;14.40;;;;;;;5.80;87.85;100399.69;5009778;28;20310;-71
2021/11/03 07:28:14;;;;;;;20.60;14.03;;;;;;;5.89;87.92;100399.13;5008513;28;20674;-71
2021/11/03 07:30:41;;;;;;;17.27;13.23;;;;;;;5.99;86.98;100398.56;5010005;28;20878;-71
2021/11/03 07:33:08;;;;;;;18.53;12.67;;;;;;;6.04;86.94;100390.25;5009698;28;20550;-72
2021/11/03 07:35:34;;;;;;;18.60;13.73;;;;;;;6.21;86.68;100395.84;5024651;28;20215;-72
2021/11/03 07:38:00;;;;;;;20.63;13.60;;;;;;;6.32;86.87;100390.25;5008395;28;20187;-72
2021/11/03 07:40:30;;;;;;;19.30;13.90;;;;;;;6.37;88.54;100391.25;5009920;28;20179;-70
2021/11/03 07:42:58;;;;;;;18.67;14.27;;;;;;;6.50;87.15;100390.75;5004078;28;20210;-72
2021/11/03 07:45:27;;;;;;;18.67;13.60;;;;;;;6.51;86.07;100389.97;5024201;28;20606;-71
2021/11/03 07:47:53;;;;;;;16.87;12.83;;;;;;;6.62;86.24;100395.31;4997390;28;20195;-71
2021/11/03 07:50:23;;;;;;;22.30;13.87;;;;;;;6.72;87.01;100405.78;5009758;28;20565;-71
2021/11/03 07:52:48;;;;;;;18.23;13.37;;;;;;;6.74;86.27;100398.22;5009968;28;20334;-72
2021/11/03 07:55:14;;;;;;;22.57;15.03;;;;;;;6.88;86.51;100407.94;5008513;28;20763;-72
2021/11/03 07:57:40;;;;;;;19.83;14.77;;;;;;;6.95;87.08;100412.38;5009836;28;20187;-72
2021/11/03 08:00:07;;;;;;;22.30;14.87;;;;;;;6.99;87.13;100409.09;5010023;28;20184;-72
2021/11/03 08:02:37;;;;;;;19.43;14.03;;;;;;;7.05;85.71;100409.22;5010262;28;20180;-70
2021/11/03 08:05:04;;;;;;;21.63;15.10;;;;;;;7.14;85.61;100414.56;5012811;28;20231;-72
2021/11/03 08:07:29;;;;;;;24.63;16.10;;;;;;;7.17;86.09;100417.19;5013710;28;20228;-73
2021/11/03 08:09:57;;;;;;;21.93;14.17;;;;;;;7.34;84.78;100413.41;5012405;28;20219;-72
2021/11/03 08:12:22;;;;;;;22.27;15.37;;;;;;;7.45;84.97;100413.66;5012400;28;20216;-71
2021/11/03 08:14:47;;;;;;;21.47;15.30;;;;;;;7.59;83.97;100412.28;5013526;28;20965;-71
2021/11/03 08:17:20;;;;;;;20.80;14.20;;;;;;;7.73;84.24;100411.81;5012040;28;20228;-71
2021/11/03 08:19:52;;;;;;;19.53;14.57;;;;;;;7.84;83.79;100418.00;5013342;28;20643;-71
2021/11/03 08:22:21;;;;;;;19.47;14.77;;;;;;;8.06;82.54;100412.56;5011879;28;20191;-71
2021/11/03 08:24:48;;;;;;;18.20;13.90;;;;;;;8.32;81.37;100421.69;5013124;28;20298;-71
2021/11/03 08:27:14;;;;;;;20.53;14.77;;;;;;;8.45;80.78;100421.13;5012997;28;20195;-72
2021/11/03 08:29:39;;;;;;;19.47;14.63;;;;;;;8.26;81.10;100423.25;5011462;28;20223;-71
2021/11/03 08:32:07;;;;;;;20.17;14.60;;;;;;;8.68;80.38;100419.03;5013002;28;20188;-71
2021/11/03 08:34:34;;;;;;;19.47;14.57;;;;;;;8.38;80.45;100426.91;5012837;28;20222;-71
2021/11/03 08:37:04;;;;;;;21.90;16.17;;;;;;;8.88;79.67;100433.91;5012631;28;20223;-71
2021/11/03 08:39:30;;;;;;;22.07;15.10;;;;;;;8.85;79.42;100438.09;5011386;28;20588;-71
2021/11/03 08:41:55;;;;;;;19.83;15.57;;;;;;;9.26;77.59;100432.91;5012911;28;20180;-72
2021/11/03 08:44:20;;;;;;;19.13;14.63;;;;;;;10.21;75.15;100425.13;5011281;28;20246;-71
2021/11/03 08:46:45;;;;;;;19.53;14.53;;;;;;;13.02;64.26;100416.44;5012457;28;20266;-71
2021/11/03 08:49:11;;;;;;;20.50;15.00;;;;;;;15.41;55.55;100397.03;5012593;28;20215;-71
2021/11/03 08:51:39;;;;;;;19.40;15.13;;;;;;;15.51;55.32;100402.97;5011420;28;20214;-72
2021/11/03 08:54:07;;;;;;;20.63;16.13;;;;;;;16.79;51.61;100398.22;5011279;28;20253;-71
2021/11/03 08:56:32;;;;;;;18.90;15.10;;;;;;;17.29;50.51;100392.31;5012274;28;20211;-71
2021/11/03 08:58:57;;;;;;;20.90;16.47;;;;;;;17.57;49.50;100394.50;5010934;28;20191;-72
2021/11/03 09:01:23;;;;;;;18.03;15.03;;;;;;;17.73;48.05;100392.50;5012503;28;20191;-72
2021/11/03 09:03:50;;;;;;;20.17;16.67;;;;;;;17.29;49.46;100400.94;5012561;28;20210;-71
2021/11/03 09:06:16;;;;;;;23.70;19.07;;;;;;;16.02;52.34;100402.53;5012331;28;20282;-72
2021/11/03 09:08:49;;;;;;;22.43;17.60;;;;;;;16.43;52.23;100397.78;5012623;28;20223;-72
2021/11/03 09:11:14;;;;;;;21.93;17.27;;;;;;;18.76;46.62;100377.56;5012410;28;20191;-72
2021/11/03 09:13:40;;;;;;;21.40;18.30;;;;;;;19.44;45.08;100378.63;5011239;28;20198;-72
2021/11/03 09:16:05;;;;;;;22.50;18.27;;;;;;;18.65;46.04;100373.50;5011407;28;20238;-73
2021/11/03 09:18:32;;;;;;;24.13;19.47;;;;;;;17.67;48.18;100380.50;5010567;28;20250;-73
2021/11/03 09:20:58;;;;;;;22.57;19.53;;;;;;;19.36;44.96;100380.56;5005474;28;20183;-72
2021/11/03 09:23:25;;;;;;;24.43;20.97;;;;;;;19.64;44.16;100377.28;5012187;28;20184;-72
2021/11/03 09:25:52;;;;;;;25.27;21.90;;;;;;;18.77;45.80;100375.81;5011900;28;20278;-72
2021/11/03 09:28:19;;;;;;;23.93;20.93;;;;;;;19.15;45.88;100362.84;5012107;28;20266;-72
2021/11/03 09:30:44;;;;;;;23.80;20.07;;;;;;;17.42;48.99;100383.53;5011826;28;20225;-73
2021/11/03 09:33:11;;;;;;;26.27;21.70;;;;;;;16.04;52.49;100375.81;5007795;28;20192;-72
2021/11/03 09:35:44;;;;;;;26.73;22.07;;;;;;;15.63;54.32;100377.91;5010475;28;20207;-73
2021/11/03 09:38:12;;;;;;;26.33;21.50;;;;;;;16.29;51.56;100374.66;5009334;28;20183;-72
2021/11/03 09:40:58;;;;;;;26.07;21.37;;;;;;;15.42;55.85;100367.75;5011919;28;20205;-73
2021/11/03 09:43:45;;;;;;;26.47;20.80;;;;;;;14.39;57.93;100376.06;5017302;28;20670;-73
2021/11/03 09:46:17;;;;;;;27.70;21.17;;;;;;;13.60;59.61;100383.06;5031182;28;20248;-72
2021/11/03 09:48:43;;;;;;;27.50;22.23;;;;;;;15.70;54.13;100373.56;5031272;28;20217;-72
2021/11/03 09:51:18;;;;;;;25.53;21.63;;;;;;;17.67;49.24;100366.69;5031038;28;20191;-73
2021/11/03 09:53:48;;;;;;;26.67;21.67;;;;;;;17.12;50.27;100371.88;5031374;28;20174;-73
2021/11/03 09:56:18;;;;;;;28.37;22.67;;;;;;;17.80;48.89;100366.47;5026559;28;20281;-73
2021/11/03 09:59:00;;;;;;;25.33;20.17;;;;;;;19.40;45.10;100357.06;5011178;28;20194;-73
2021/11/03 10:02:03;;;;;;;26.53;21.77;;;;;;;18.56;46.56;100356.38;5011518;28;20187;-73
2021/11/03 10:04:58;;;;;;;25.03;21.10;;;;;;;17.37;48.82;100377.53;5011421;28;20524;-72
2021/11/03 10:07:32;;;;;;;27.73;22.80;;;;;;;16.02;52.77;100374.13;5011279;28;20290;-73
2021/11/03 10:10:07;;;;;;;28.53;22.53;;;;;;;15.54;54.19;100378.00;5011309;28;20216;-74
2021/11/03 10:12:33;;;;;;;27.43;22.40;;;;;;;15.34;55.65;100381.59;5011342;28;20206;-74
2021/11/03 10:14:58;;;;;;;28.40;23.13;;;;;;;14.20;58.71;100382.09;5009777;28;20297;-74
2021/11/03 10:17:27;;;;;;;26.97;22.63;;;;;;;13.03;62.04;100377.84;4993508;28;20187;-74
2021/11/03 10:19:53;;;;;;;32.67;24.77;;;;;;;12.83;62.99;100382.94;5011102;28;20637;-74
2021/11/03 10:22:18;;;;;;;33.63;25.17;;;;;;;12.62;63.79;100384.56;5009780;28;20564;-75
2021/11/03 10:24:47;;;;;;;30.00;22.57;;;;;;;12.84;63.67;100386.34;5011011;28;20207;-73
2021/11/03 10:27:20;;;;;;;33.50;24.97;;;;;;;12.70;63.76;100388.00;5008830;28;20199;-73
2021/11/03 10:29:54;;;;;;;32.40;24.90;;;;;;;12.56;64.56;100387.97;5010925;28;20226;-73
2021/11/03 10:32:31;;;;;;;32.83;25.50;;;;;;;12.25;66.09;100382.69;5011023;28;20174;-73
2021/11/03 10:35:35;;;;;;;34.23;25.07;;;;;;;11.85;67.03;100383.31;5009555;28;20211;-74
2021/11/03 10:38:07;;;;;;;34.17;24.93;;;;;;;11.85;67.36;100386.72;5011001;28;20175;-73
2021/11/03 10:40:57;;;;;;;37.23;24.37;;;;;;;11.94;67.38;100391.06;5010806;28;20712;-73
2021/11/03 10:43:29;;;;;;;33.67;25.43;;;;;;;11.44;68.49;100406.06;5009561;28;20198;-73
2021/11/03 10:46:09;;;;;;;36.63;25.60;;;;;;;11.43;69.11;100403.47;5010243;28;20221;-72
2021/11/03 10:48:35;;;;;;;33.33;24.57;;;;;;;11.19;69.89;100401.53;5009169;28;20280;-72
2021/11/03 10:51:17;;;;;;;35.50;24.63;;;;;;;11.45;69.55;100406.91;5010115;28;20241;-72
2021/11/03 10:53:42;;;;;;;33.37;23.87;;;;;;;11.40;70.02;100408.56;5004276;28;20692;-73
2021/11/03 10:56:19;;;;;;;33.10;23.90;;;;;;;11.59;69.54;100413.91;5009840;28;20310;-73
2021/11/03 10:58:50;;;;;;;33.93;24.30;;;;;;;10.98;70.97;100419.28;5009076;28;20194;-73
2021/11/03 11:01:22;;;;;;;35.47;25.03;;;;;;;10.89;71.31;100420.84;5010250;28;20210;-73
2021/11/03 11:04:05;;;;;;;35.20;24.53;;;;;;;10.85;71.77;100414.84;5010585;28;20191;-72
2021/11/03 11:06:50;;;;;;;34.50;23.90;;;;;;;11.19;71.21;100414.34;5010085;28;20215;-73
2021/11/03 11:09:31;;;;;;;35.57;24.03;;;;;;;11.24;70.22;100404.16;5010359;28;20294;-72
2021/11/03 11:12:02;;;;;;;38.00;24.13;;;;;;;10.98;70.39;100411.59;5010139;28;20284;-72
2021/11/03 11:14:31;;;;;;;33.77;24.07;;;;;;;11.00;71.05;100402.19;5008888;28;20332;-74
2021/11/03 11:17:10;;;;;;;31.33;23.63;;;;;;;11.01;70.90;100406.47;5008611;28;20274;-73
2021/11/03 11:20:04;;;;;;;35.87;24.43;;;;;;;11.43;69.80;100390.66;5010135;28;20226;-73
2021/11/03 11:22:44;;;;;;;29.60;22.40;;;;;;;11.72;68.55;100387.50;5010224;28;20207;-73